sensor_id;sensor_type;location;lat;lon;timestamp;P1;P2;P0
72854;PMS7003;60991;51.278;22.550;2023-03-23T00:00:52;29.00;22.75;16.00
72854;PMS7003;60991;51.278;22.550;2023-03-23T00:02:23;25.00;22.50;14.00
72854;PMS7003;60991;51.278;22.550;2023-03-23T00:03:54;21.00;19.75;11.00
72854;PMS7003;60991;51.278;22.550;2023-03-23T00:05:25;19.50;18.00;13.25
72854;PMS7003;60991;51.278;22.550;2023-03-23T00:06:55;23.25;18.00;11.00
72854;PMS7003;60991;51.278;22.550;2023-03-23T00:08:25;29.50;17.75;12.00
72854;PMS7003;60991;51.278;22.550;2023-03-23T00:09:55;21.00;13.75;10.00
72854;PMS7003;60991;51.278;22.550;2023-03-23T00:11:26;23.75;20.25;14.75
72854;PMS7003;60991;51.278;22.550;2023-03-23T00:12:58;26.50;24.75;15.00
72854;PMS7003;60991;51.278;22.550;2023-03-23T00:14:28;21.67;16.67;12.33
72854;PMS7003;60991;51.278;22.550;2023-03-23T00:16:01;27.75;24.00;14.00
72854;PMS7003;60991;51.278;22.550;2023-03-23T00:17:32;23.75;20.75;13.75
72854;PMS7003;60991;51.278;22.550;2023-03-23T00:19:04;25.50;22.00;16.00
72854;PMS7003;60991;51.278;22.550;2023-03-23T00:20:36;21.50;20.50;12.00
72854;PMS7003;60991;51.278;22.550;2023-03-23T00:22:06;25.67;23.33;16.33
72854;PMS7003;60991;51.278;22.550;2023-03-23T00:23:36;21.67;17.33;14.00
72854;PMS7003;60991;51.278;22.550;2023-03-23T00:25:06;27.25;21.75;14.50
72854;PMS7003;60991;51.278;22.550;2023-03-23T00:26:38;22.25;21.25;12.25
72854;PMS7003;60991;51.278;22.550;2023-03-23T00:28:10;23.50;19.75;15.50
72854;PMS7003;60991;51.278;22.550;2023-03-23T00:29:40;31.00;23.75;13.75
72854;PMS7003;60991;51.278;22.550;2023-03-23T00:31:11;26.00;24.50;15.00
72854;PMS7003;60991;51.278;22.550;2023-03-23T00:32:42;25.25;23.25;16.50
72854;PMS7003;60991;51.278;22.550;2023-03-23T00:34:13;25.25;23.00;16.50
72854;PMS7003;60991;51.278;22.550;2023-03-23T00:35:46;23.75;23.00;15.75
72854;PMS7003;60991;51.278;22.550;2023-03-23T00:37:16;22.67;22.00;15.00
72854;PMS7003;60991;51.278;22.550;2023-03-23T00:38:46;29.00;23.67;17.00
72854;PMS7003;60991;51.278;22.550;2023-03-23T00:40:16;26.75;23.00;14.25
72854;PMS7003;60991;51.278;22.550;2023-03-23T00:41:46;26.75;22.50;16.50
72854;PMS7003;60991;51.278;22.550;2023-03-23T00:43:17;23.75;21.75;14.25
72854;PMS7003;60991;51.278;22.550;2023-03-23T00:44:49;29.75;22.00;16.50
72854;PMS7003;60991;51.278;22.550;2023-03-23T00:46:19;24.67;21.00;15.00
72854;PMS7003;60991;51.278;22.550;2023-03-23T00:47:50;29.00;22.25;15.00
72854;PMS7003;60991;51.278;22.550;2023-03-23T00:49:20;30.25;23.75;15.50
72854;PMS7003;60991;51.278;22.550;2023-03-23T00:50:51;26.00;22.00;17.00
72854;PMS7003;60991;51.278;22.550;2023-03-23T00:52:21;30.50;23.75;16.00
72854;PMS7003;60991;51.278;22.550;2023-03-23T00:53:52;26.00;23.00;16.00
72854;PMS7003;60991;51.278;22.550;2023-03-23T00:55:22;29.25;25.75;15.75
72854;PMS7003;60991;51.278;22.550;2023-03-23T00:56:54;27.75;22.50;15.00
72854;PMS7003;60991;51.278;22.550;2023-03-23T00:58:24;32.75;28.25;14.75
72854;PMS7003;60991;51.278;22.550;2023-03-23T00:59:54;27.75;24.75;16.50
72854;PMS7003;60991;51.278;22.550;2023-03-23T01:01:25;30.33;27.33;17.00
72854;PMS7003;60991;51.278;22.550;2023-03-23T01:02:55;27.50;23.25;14.75
72854;PMS7003;60991;51.278;22.550;2023-03-23T01:04:25;28.00;22.00;14.75
72854;PMS7003;60991;51.278;22.550;2023-03-23T01:05:56;25.25;21.00;15.00
72854;PMS7003;60991;51.278;22.550;2023-03-23T01:07:26;28.00;24.50;16.00
72854;PMS7003;60991;51.278;22.550;2023-03-23T01:08:57;24.33;24.33;16.33
72854;PMS7003;60991;51.278;22.550;2023-03-23T01:10:28;31.00;24.75;15.50
72854;PMS7003;60991;51.278;22.550;2023-03-23T01:11:58;27.50;23.00;16.25
72854;PMS7003;60991;51.278;22.550;2023-03-23T01:13:28;28.67;23.00;16.00
72854;PMS7003;60991;51.278;22.550;2023-03-23T01:14:59;30.00;23.33;16.33
72854;PMS7003;60991;51.278;22.550;2023-03-23T01:16:29;33.50;28.50;15.00
72854;PMS7003;60991;51.278;22.550;2023-03-23T01:17:59;26.00;22.00;14.75
72854;PMS7003;60991;51.278;22.550;2023-03-23T01:19:29;25.33;23.00;15.00
72854;PMS7003;60991;51.278;22.550;2023-03-23T01:21:16;25.00;23.50;15.25
72854;PMS7003;60991;51.278;22.550;2023-03-23T01:22:48;19.75;19.75;11.75
72854;PMS7003;60991;51.278;22.550;2023-03-23T01:24:18;30.00;26.00;16.50
72854;PMS7003;60991;51.278;22.550;2023-03-23T01:25:48;23.50;21.00;14.50
72854;PMS7003;60991;51.278;22.550;2023-03-23T01:27:18;23.50;23.00;16.00
72854;PMS7003;60991;51.278;22.550;2023-03-23T01:28:49;26.00;22.33;15.00
72854;PMS7003;60991;51.278;22.550;2023-03-23T01:30:19;25.75;22.00;14.75
72854;PMS7003;60991;51.278;22.550;2023-03-23T01:31:50;18.25;13.50;9.25
72854;PMS7003;60991;51.278;22.550;2023-03-23T01:33:20;35.33;27.33;16.67
72854;PMS7003;60991;51.278;22.550;2023-03-23T01:34:50;28.00;23.50;17.25
72854;PMS7003;60991;51.278;22.550;2023-03-23T01:36:22;26.00;25.25;18.25
72854;PMS7003;60991;51.278;22.550;2023-03-23T01:37:54;25.25;25.25;15.50
72854;PMS7003;60991;51.278;22.550;2023-03-23T01:39:24;32.25;27.25;18.50
72854;PMS7003;60991;51.278;22.550;2023-03-23T01:40:54;25.00;24.00;15.00
72854;PMS7003;60991;51.278;22.550;2023-03-23T01:42:25;27.25;21.75;16.50
72854;PMS7003;60991;51.278;22.550;2023-03-23T01:45:57;26.75;22.50;16.50
72854;PMS7003;60991;51.278;22.550;2023-03-23T01:47:27;32.25;27.75;15.25
72854;PMS7003;60991;51.278;22.550;2023-03-23T01:48:58;19.75;19.75;14.25
72854;PMS7003;60991;51.278;22.550;2023-03-23T01:50:49;22.25;19.25;14.50
72854;PMS7003;60991;51.278;22.550;2023-03-23T01:52:22;28.75;25.75;16.50
72854;PMS7003;60991;51.278;22.550;2023-03-23T01:53:56;26.00;20.75;16.25
72854;PMS7003;60991;51.278;22.550;2023-03-23T01:55:28;22.50;18.25;12.25
72854;PMS7003;60991;51.278;22.550;2023-03-23T01:57:01;26.50;23.00;14.25
72854;PMS7003;60991;51.278;22.550;2023-03-23T01:58:35;28.25;24.25;16.00
72854;PMS7003;60991;51.278;22.550;2023-03-23T02:00:07;28.00;25.75;16.75
72854;PMS7003;60991;51.278;22.550;2023-03-23T02:01:39;27.25;24.75;16.00
72854;PMS7003;60991;51.278;22.550;2023-03-23T02:03:10;25.00;23.75;17.00
72854;PMS7003;60991;51.278;22.550;2023-03-23T02:04:41;31.50;22.75;16.00
72854;PMS7003;60991;51.278;22.550;2023-03-23T02:06:12;21.75;20.00;14.50
72854;PMS7003;60991;51.278;22.550;2023-03-23T02:07:43;29.33;24.33;16.00
72854;PMS7003;60991;51.278;22.550;2023-03-23T02:09:14;29.75;22.75;14.75
72854;PMS7003;60991;51.278;22.550;2023-03-23T02:10:44;27.75;20.50;14.00
72854;PMS7003;60991;51.278;22.550;2023-03-23T02:12:15;24.75;21.00;14.50
72854;PMS7003;60991;51.278;22.550;2023-03-23T02:13:45;29.00;24.75;15.50
72854;PMS7003;60991;51.278;22.550;2023-03-23T02:15:17;30.00;25.25;17.25
72854;PMS7003;60991;51.278;22.550;2023-03-23T02:18:53;28.75;20.00;15.75
72854;PMS7003;60991;51.278;22.550;2023-03-23T02:20:53;30.75;22.00;15.00
72854;PMS7003;60991;51.278;22.550;2023-03-23T02:28:27;23.75;21.25;13.75
72854;PMS7003;60991;51.278;22.550;2023-03-23T02:31:53;23.25;20.50;15.25
72854;PMS7003;60991;51.278;22.550;2023-03-23T02:37:08;24.00;21.50;13.50
72854;PMS7003;60991;51.278;22.550;2023-03-23T02:39:04;23.25;19.75;14.25
72854;PMS7003;60991;51.278;22.550;2023-03-23T02:40:47;20.50;20.50;15.75
72854;PMS7003;60991;51.278;22.550;2023-03-23T02:42:21;27.25;20.25;14.00
72854;PMS7003;60991;51.278;22.550;2023-03-23T02:43:56;23.50;18.50;11.25
72854;PMS7003;60991;51.278;22.550;2023-03-23T02:45:28;21.25;19.00;14.00
72854;PMS7003;60991;51.278;22.550;2023-03-23T02:47:01;19.75;17.25;13.00
72854;PMS7003;60991;51.278;22.550;2023-03-23T02:48:36;29.00;21.00;13.75
72854;PMS7003;60991;51.278;22.550;2023-03-23T02:50:10;30.75;27.25;15.75
72854;PMS7003;60991;51.278;22.550;2023-03-23T02:51:44;21.00;19.50;14.00
72854;PMS7003;60991;51.278;22.550;2023-03-23T02:53:18;29.75;27.50;14.75
72854;PMS7003;60991;51.278;22.550;2023-03-23T02:54:52;26.50;23.25;13.00
72854;PMS7003;60991;51.278;22.550;2023-03-23T02:56:25;26.25;22.25;14.00
72854;PMS7003;60991;51.278;22.550;2023-03-23T02:57:57;27.00;21.25;16.00
72854;PMS7003;60991;51.278;22.550;2023-03-23T02:59:27;27.75;24.50;15.00
72854;PMS7003;60991;51.278;22.550;2023-03-23T03:00:58;17.75;15.75;13.00
72854;PMS7003;60991;51.278;22.550;2023-03-23T03:02:29;27.00;21.00;15.50
72854;PMS7003;60991;51.278;22.550;2023-03-23T03:04:05;27.25;21.50;14.00
72854;PMS7003;60991;51.278;22.550;2023-03-23T03:05:40;23.25;20.25;15.50
72854;PMS7003;60991;51.278;22.550;2023-03-23T03:10:43;23.00;20.25;14.25
72854;PMS7003;60991;51.278;22.550;2023-03-23T03:12:23;26.75;21.50;15.25
72854;PMS7003;60991;51.278;22.550;2023-03-23T03:14:06;24.50;18.75;12.00
72854;PMS7003;60991;51.278;22.550;2023-03-23T03:17:25;30.75;24.25;14.25
72854;PMS7003;60991;51.278;22.550;2023-03-23T03:20:38;18.75;18.00;12.50
72854;PMS7003;60991;51.278;22.550;2023-03-23T03:22:13;17.00;16.00;10.00
72854;PMS7003;60991;51.278;22.550;2023-03-23T03:23:44;21.50;16.75;13.75
72854;PMS7003;60991;51.278;22.550;2023-03-23T03:25:17;22.00;20.00;15.00
72854;PMS7003;60991;51.278;22.550;2023-03-23T03:26:50;23.00;21.25;15.50
72854;PMS7003;60991;51.278;22.550;2023-03-23T03:28:23;17.75;17.75;11.50
72854;PMS7003;60991;51.278;22.550;2023-03-23T03:29:56;20.25;15.25;13.00
72854;PMS7003;60991;51.278;22.550;2023-03-23T03:31:29;22.00;20.50;14.25
72854;PMS7003;60991;51.278;22.550;2023-03-23T03:33:03;26.50;20.75;13.75
72854;PMS7003;60991;51.278;22.550;2023-03-23T03:34:34;18.75;17.50;13.00
72854;PMS7003;60991;51.278;22.550;2023-03-23T03:36:04;20.25;16.00;13.75
72854;PMS7003;60991;51.278;22.550;2023-03-23T03:37:36;25.50;22.75;14.00
72854;PMS7003;60991;51.278;22.550;2023-03-23T03:39:08;17.75;15.25;10.00
72854;PMS7003;60991;51.278;22.550;2023-03-23T03:40:39;18.25;18.25;12.50
72854;PMS7003;60991;51.278;22.550;2023-03-23T03:42:10;20.00;18.25;12.50
72854;PMS7003;60991;51.278;22.550;2023-03-23T03:43:40;23.50;21.25;11.50
72854;PMS7003;60991;51.278;22.550;2023-03-23T03:45:12;23.00;18.75;13.75
72854;PMS7003;60991;51.278;22.550;2023-03-23T03:46:47;23.25;19.25;13.50
72854;PMS7003;60991;51.278;22.550;2023-03-23T03:48:17;24.00;19.75;12.50
72854;PMS7003;60991;51.278;22.550;2023-03-23T03:49:47;21.75;20.25;12.75
72854;PMS7003;60991;51.278;22.550;2023-03-23T03:51:17;20.67;17.67;12.33
72854;PMS7003;60991;51.278;22.550;2023-03-23T03:52:48;21.50;20.00;13.75
72854;PMS7003;60991;51.278;22.550;2023-03-23T03:54:18;16.00;14.25;10.00
72854;PMS7003;60991;51.278;22.550;2023-03-23T03:55:49;19.50;16.25;12.75
72854;PMS7003;60991;51.278;22.550;2023-03-23T03:57:19;20.25;18.75;12.25
72854;PMS7003;60991;51.278;22.550;2023-03-23T03:58:50;20.00;16.75;13.00
72854;PMS7003;60991;51.278;22.550;2023-03-23T04:00:20;18.50;15.00;11.25
72854;PMS7003;60991;51.278;22.550;2023-03-23T04:01:51;20.75;18.25;13.75
72854;PMS7003;60991;51.278;22.550;2023-03-23T04:03:21;22.50;19.25;12.75
72854;PMS7003;60991;51.278;22.550;2023-03-23T04:04:51;21.00;17.33;11.67
72854;PMS7003;60991;51.278;22.550;2023-03-23T04:06:21;22.25;19.75;13.25
72854;PMS7003;60991;51.278;22.550;2023-03-23T04:07:52;15.50;14.25;10.00
72854;PMS7003;60991;51.278;22.550;2023-03-23T04:09:22;16.00;14.33;11.33
72854;PMS7003;60991;51.278;22.550;2023-03-23T04:10:52;22.75;19.50;12.00
72854;PMS7003;60991;51.278;22.550;2023-03-23T04:12:22;16.25;15.00;9.75
72854;PMS7003;60991;51.278;22.550;2023-03-23T04:13:53;20.50;16.25;12.00
72854;PMS7003;60991;51.278;22.550;2023-03-23T04:15:23;16.00;13.33;9.67
72854;PMS7003;60991;51.278;22.550;2023-03-23T04:16:53;21.50;19.50;13.25
72854;PMS7003;60991;51.278;22.550;2023-03-23T04:18:23;19.67;16.00;13.00
72854;PMS7003;60991;51.278;22.550;2023-03-23T04:19:54;18.75;15.00;10.75
72854;PMS7003;60991;51.278;22.550;2023-03-23T04:21:25;27.00;22.00;14.00
72854;PMS7003;60991;51.278;22.550;2023-03-23T04:22:55;21.00;19.00;12.50
72854;PMS7003;60991;51.278;22.550;2023-03-23T04:24:25;18.50;16.50;13.00
72854;PMS7003;60991;51.278;22.550;2023-03-23T04:25:55;15.67;14.33;10.67
72854;PMS7003;60991;51.278;22.550;2023-03-23T04:27:26;17.75;16.25;12.50
72854;PMS7003;60991;51.278;22.550;2023-03-23T04:28:57;18.75;17.75;13.00
72854;PMS7003;60991;51.278;22.550;2023-03-23T04:30:28;18.25;15.25;11.25
72854;PMS7003;60991;51.278;22.550;2023-03-23T04:31:58;18.50;17.75;12.50
72854;PMS7003;60991;51.278;22.550;2023-03-23T04:33:29;19.50;17.50;11.25
72854;PMS7003;60991;51.278;22.550;2023-03-23T04:34:59;20.50;15.75;12.00
72854;PMS7003;60991;51.278;22.550;2023-03-23T04:36:30;24.00;20.25;14.00
72854;PMS7003;60991;51.278;22.550;2023-03-23T04:38:00;15.75;13.00;10.00
72854;PMS7003;60991;51.278;22.550;2023-03-23T04:39:30;25.67;20.67;10.00
72854;PMS7003;60991;51.278;22.550;2023-03-23T04:41:01;16.25;15.00;11.00
72854;PMS7003;60991;51.278;22.550;2023-03-23T04:42:31;17.25;13.75;10.00
72854;PMS7003;60991;51.278;22.550;2023-03-23T04:44:02;18.75;13.75;9.75
72854;PMS7003;60991;51.278;22.550;2023-03-23T04:45:33;17.25;14.00;9.50
72854;PMS7003;60991;51.278;22.550;2023-03-23T04:47:04;17.00;16.75;12.00
72854;PMS7003;60991;51.278;22.550;2023-03-23T04:48:35;16.25;14.75;10.00
72854;PMS7003;60991;51.278;22.550;2023-03-23T04:50:09;21.25;16.75;11.25
72854;PMS7003;60991;51.278;22.550;2023-03-23T04:51:41;21.25;20.00;13.25
72854;PMS7003;60991;51.278;22.550;2023-03-23T04:53:11;21.00;16.33;13.00
72854;PMS7003;60991;51.278;22.550;2023-03-23T04:54:41;16.25;15.00;11.25
72854;PMS7003;60991;51.278;22.550;2023-03-23T04:56:11;23.00;19.00;14.00
72854;PMS7003;60991;51.278;22.550;2023-03-23T04:57:42;18.75;18.75;9.50
72854;PMS7003;60991;51.278;22.550;2023-03-23T04:59:12;21.33;15.00;10.67
72854;PMS7003;60991;51.278;22.550;2023-03-23T05:00:42;22.25;15.75;10.00
72854;PMS7003;60991;51.278;22.550;2023-03-23T05:02:12;17.50;13.50;10.00
72854;PMS7003;60991;51.278;22.550;2023-03-23T05:03:43;16.75;14.00;10.00
72854;PMS7003;60991;51.278;22.550;2023-03-23T05:05:14;14.50;13.75;10.00
72854;PMS7003;60991;51.278;22.550;2023-03-23T05:06:44;17.25;15.00;12.75
72854;PMS7003;60991;51.278;22.550;2023-03-23T05:08:14;21.25;18.50;11.75
72854;PMS7003;60991;51.278;22.550;2023-03-23T05:09:47;21.25;15.25;10.00
72854;PMS7003;60991;51.278;22.550;2023-03-23T05:11:18;24.75;13.75;9.25
72854;PMS7003;60991;51.278;22.550;2023-03-23T05:12:48;19.00;16.33;12.33
72854;PMS7003;60991;51.278;22.550;2023-03-23T05:14:19;15.25;12.50;8.75
72854;PMS7003;60991;51.278;22.550;2023-03-23T05:15:49;16.75;13.50;8.75
72854;PMS7003;60991;51.278;22.550;2023-03-23T05:17:19;18.00;15.25;9.50
72854;PMS7003;60991;51.278;22.550;2023-03-23T05:18:50;15.75;14.75;10.00
72854;PMS7003;60991;51.278;22.550;2023-03-23T05:20:20;15.25;13.75;9.75
72854;PMS7003;60991;51.278;22.550;2023-03-23T05:21:50;16.33;16.33;13.33
72854;PMS7003;60991;51.278;22.550;2023-03-23T05:23:20;18.25;14.25;12.00
72854;PMS7003;60991;51.278;22.550;2023-03-23T05:24:51;14.50;14.50;10.00
72854;PMS7003;60991;51.278;22.550;2023-03-23T05:26:21;19.67;16.33;13.00
72854;PMS7003;60991;51.278;22.550;2023-03-23T05:27:52;15.75;14.25;9.50
72854;PMS7003;60991;51.278;22.550;2023-03-23T05:29:22;19.33;15.00;9.00
72854;PMS7003;60991;51.278;22.550;2023-03-23T05:30:53;20.25;17.50;10.50
72854;PMS7003;60991;51.278;22.550;2023-03-23T05:32:27;19.75;17.50;12.50
72854;PMS7003;60991;51.278;22.550;2023-03-23T05:33:57;15.50;13.50;9.75
72854;PMS7003;60991;51.278;22.550;2023-03-23T05:35:28;17.67;15.00;10.67
72854;PMS7003;60991;51.278;22.550;2023-03-23T05:36:58;12.25;12.25;9.00
72854;PMS7003;60991;51.278;22.550;2023-03-23T05:38:29;17.25;15.75;10.75
72854;PMS7003;60991;51.278;22.550;2023-03-23T05:40:00;15.50;14.00;10.50
72854;PMS7003;60991;51.278;22.550;2023-03-23T05:41:30;21.25;19.75;11.00
72854;PMS7003;60991;51.278;22.550;2023-03-23T05:43:00;17.25;14.00;9.25
72854;PMS7003;60991;51.278;22.550;2023-03-23T05:44:30;17.67;13.67;10.33
72854;PMS7003;60991;51.278;22.550;2023-03-23T05:46:01;12.25;10.25;7.00
72854;PMS7003;60991;51.278;22.550;2023-03-23T05:47:31;24.67;15.33;9.00
72854;PMS7003;60991;51.278;22.550;2023-03-23T05:49:01;17.00;14.00;10.00
72854;PMS7003;60991;51.278;22.550;2023-03-23T05:50:31;15.75;13.00;9.00
72854;PMS7003;60991;51.278;22.550;2023-03-23T05:52:02;12.50;12.00;9.75
72854;PMS7003;60991;51.278;22.550;2023-03-23T05:53:32;16.75;13.50;10.75
72854;PMS7003;60991;51.278;22.550;2023-03-23T05:55:02;14.00;14.00;12.00
72854;PMS7003;60991;51.278;22.550;2023-03-23T05:56:33;21.00;17.75;10.00
72854;PMS7003;60991;51.278;22.550;2023-03-23T05:58:04;20.00;15.50;12.50
72854;PMS7003;60991;51.278;22.550;2023-03-23T05:59:34;22.00;18.50;12.50
72854;PMS7003;60991;51.278;22.550;2023-03-23T06:01:08;15.25;15.25;9.75
72854;PMS7003;60991;51.278;22.550;2023-03-23T06:02:39;19.25;12.50;9.00
72854;PMS7003;60991;51.278;22.550;2023-03-23T06:04:09;16.50;13.25;9.00
72854;PMS7003;60991;51.278;22.550;2023-03-23T06:05:43;16.50;13.25;10.00
72854;PMS7003;60991;51.278;22.550;2023-03-23T06:07:14;20.25;12.75;10.00
72854;PMS7003;60991;51.278;22.550;2023-03-23T06:08:44;13.00;13.00;8.50
72854;PMS7003;60991;51.278;22.550;2023-03-23T06:10:15;22.50;17.00;11.25
72854;PMS7003;60991;51.278;22.550;2023-03-23T06:11:45;19.75;18.00;9.50
72854;PMS7003;60991;51.278;22.550;2023-03-23T06:13:15;13.75;11.75;8.75
72854;PMS7003;60991;51.278;22.550;2023-03-23T06:14:46;17.33;14.33;11.00
72854;PMS7003;60991;51.278;22.550;2023-03-23T06:16:19;15.00;13.00;9.25
72854;PMS7003;60991;51.278;22.550;2023-03-23T06:17:49;20.50;18.75;11.25
72854;PMS7003;60991;51.278;22.550;2023-03-23T06:19:19;16.33;15.00;8.67
72854;PMS7003;60991;51.278;22.550;2023-03-23T06:20:50;14.67;11.33;9.00
72854;PMS7003;60991;51.278;22.550;2023-03-23T06:22:20;13.75;13.00;8.25
72854;PMS7003;60991;51.278;22.550;2023-03-23T06:23:50;17.25;15.50;9.00
72854;PMS7003;60991;51.278;22.550;2023-03-23T06:25:21;15.33;12.67;9.00
72854;PMS7003;60991;51.278;22.550;2023-03-23T06:26:52;19.75;14.50;10.75
72854;PMS7003;60991;51.278;22.550;2023-03-23T06:28:22;20.67;16.00;10.00
72854;PMS7003;60991;51.278;22.550;2023-03-23T06:29:52;18.67;12.67;9.67
72854;PMS7003;60991;51.278;22.550;2023-03-23T06:31:25;16.25;15.50;9.75
72854;PMS7003;60991;51.278;22.550;2023-03-23T06:32:56;15.50;14.50;11.00
72854;PMS7003;60991;51.278;22.550;2023-03-23T06:34:27;19.50;14.50;10.75
72854;PMS7003;60991;51.278;22.550;2023-03-23T06:35:57;14.25;13.75;9.75
72854;PMS7003;60991;51.278;22.550;2023-03-23T06:37:28;17.00;15.00;10.50
72854;PMS7003;60991;51.278;22.550;2023-03-23T06:38:58;18.50;14.00;10.25
72854;PMS7003;60991;51.278;22.550;2023-03-23T06:40:28;21.75;15.25;9.25
72854;PMS7003;60991;51.278;22.550;2023-03-23T06:41:58;17.25;13.00;9.50
72854;PMS7003;60991;51.278;22.550;2023-03-23T06:43:28;14.75;14.00;9.75
72854;PMS7003;60991;51.278;22.550;2023-03-23T06:44:59;15.75;15.00;11.00
72854;PMS7003;60991;51.278;22.550;2023-03-23T06:46:29;11.75;10.25;7.00
72854;PMS7003;60991;51.278;22.550;2023-03-23T06:47:59;17.50;13.00;8.75
72854;PMS7003;60991;51.278;22.550;2023-03-23T06:49:30;18.00;13.00;9.25
72854;PMS7003;60991;51.278;22.550;2023-03-23T06:51:00;12.75;10.75;9.00
72854;PMS7003;60991;51.278;22.550;2023-03-23T06:52:30;15.00;13.50;11.00
72854;PMS7003;60991;51.278;22.550;2023-03-23T06:54:00;18.75;14.50;10.50
72854;PMS7003;60991;51.278;22.550;2023-03-23T06:55:31;15.75;13.75;9.00
72854;PMS7003;60991;51.278;22.550;2023-03-23T06:57:01;13.50;10.75;9.00
72854;PMS7003;60991;51.278;22.550;2023-03-23T06:58:31;16.50;16.25;10.50
72854;PMS7003;60991;51.278;22.550;2023-03-23T07:00:01;17.00;15.25;10.50
72854;PMS7003;60991;51.278;22.550;2023-03-23T07:01:32;16.50;14.75;10.50
72854;PMS7003;60991;51.278;22.550;2023-03-23T07:03:03;14.50;14.25;10.00
72854;PMS7003;60991;51.278;22.550;2023-03-23T07:04:33;17.25;14.00;11.00
72854;PMS7003;60991;51.278;22.550;2023-03-23T07:06:03;19.00;14.50;10.00
72854;PMS7003;60991;51.278;22.550;2023-03-23T07:07:34;19.50;16.00;10.75
72854;PMS7003;60991;51.278;22.550;2023-03-23T07:09:05;18.00;13.50;10.00
72854;PMS7003;60991;51.278;22.550;2023-03-23T07:10:35;20.00;16.50;14.00
72854;PMS7003;60991;51.278;22.550;2023-03-23T07:12:06;16.50;14.50;9.25
72854;PMS7003;60991;51.278;22.550;2023-03-23T07:13:36;20.75;16.25;9.50
72854;PMS7003;60991;51.278;22.550;2023-03-23T07:15:06;17.50;12.75;10.50
72854;PMS7003;60991;51.278;22.550;2023-03-23T07:16:37;17.25;15.00;11.75
72854;PMS7003;60991;51.278;22.550;2023-03-23T07:18:07;16.50;15.25;11.00
72854;PMS7003;60991;51.278;22.550;2023-03-23T07:19:37;20.50;16.75;11.00
72854;PMS7003;60991;51.278;22.550;2023-03-23T07:21:07;17.75;17.75;13.00
72854;PMS7003;60991;51.278;22.550;2023-03-23T07:22:38;17.00;14.25;9.50
72854;PMS7003;60991;51.278;22.550;2023-03-23T07:24:11;13.00;11.25;9.75
72854;PMS7003;60991;51.278;22.550;2023-03-23T07:25:42;15.00;15.00;11.00
72854;PMS7003;60991;51.278;22.550;2023-03-23T07:27:13;12.00;12.00;9.75
72854;PMS7003;60991;51.278;22.550;2023-03-23T07:28:44;17.25;12.00;9.50
72854;PMS7003;60991;51.278;22.550;2023-03-23T07:30:14;17.25;17.25;12.25
72854;PMS7003;60991;51.278;22.550;2023-03-23T07:31:44;18.75;17.75;11.00
72854;PMS7003;60991;51.278;22.550;2023-03-23T07:33:14;21.25;15.75;10.00
72854;PMS7003;60991;51.278;22.550;2023-03-23T07:34:45;17.00;15.50;10.25
72854;PMS7003;60991;51.278;22.550;2023-03-23T07:36:15;18.67;16.33;11.00
72854;PMS7003;60991;51.278;22.550;2023-03-23T07:37:45;17.75;15.00;12.00
72854;PMS7003;60991;51.278;22.550;2023-03-23T07:39:15;16.50;16.50;11.75
72854;PMS7003;60991;51.278;22.550;2023-03-23T07:40:45;17.25;16.50;12.25
72854;PMS7003;60991;51.278;22.550;2023-03-23T07:42:16;18.75;15.25;11.00
72854;PMS7003;60991;51.278;22.550;2023-03-23T07:43:46;16.25;14.50;11.00
72854;PMS7003;60991;51.278;22.550;2023-03-23T07:45:16;19.75;15.50;11.00
72854;PMS7003;60991;51.278;22.550;2023-03-23T07:46:47;15.25;14.50;10.25
72854;PMS7003;60991;51.278;22.550;2023-03-23T07:48:17;16.50;14.25;11.00
72854;PMS7003;60991;51.278;22.550;2023-03-23T07:49:47;13.25;11.75;8.75
72854;PMS7003;60991;51.278;22.550;2023-03-23T07:51:17;21.00;18.00;12.25
72854;PMS7003;60991;51.278;22.550;2023-03-23T07:52:48;14.00;13.00;10.50
72854;PMS7003;60991;51.278;22.550;2023-03-23T07:54:18;17.50;16.75;10.50
72854;PMS7003;60991;51.278;22.550;2023-03-23T07:55:48;20.25;14.50;12.00
72854;PMS7003;60991;51.278;22.550;2023-03-23T07:57:18;19.25;17.25;12.00
72854;PMS7003;60991;51.278;22.550;2023-03-23T07:58:49;17.25;14.50;11.00
72854;PMS7003;60991;51.278;22.550;2023-03-23T08:00:19;20.75;18.50;12.00
72854;PMS7003;60991;51.278;22.550;2023-03-23T08:01:51;16.75;13.00;10.75
72854;PMS7003;60991;51.278;22.550;2023-03-23T08:03:21;15.25;14.00;11.00
72854;PMS7003;60991;51.278;22.550;2023-03-23T08:04:51;18.00;17.25;12.00
72854;PMS7003;60991;51.278;22.550;2023-03-23T08:06:22;16.25;13.00;10.00
72854;PMS7003;60991;51.278;22.550;2023-03-23T08:07:53;15.75;13.75;11.50
72854;PMS7003;60991;51.278;22.550;2023-03-23T08:09:24;16.75;13.00;10.00
72854;PMS7003;60991;51.278;22.550;2023-03-23T08:10:54;16.50;14.25;10.50
72854;PMS7003;60991;51.278;22.550;2023-03-23T08:12:24;18.50;13.50;11.25
72854;PMS7003;60991;51.278;22.550;2023-03-23T08:13:54;13.75;13.75;10.00
72854;PMS7003;60991;51.278;22.550;2023-03-23T08:15:25;17.75;15.75;12.25
72854;PMS7003;60991;51.278;22.550;2023-03-23T08:16:55;17.25;16.00;12.00
72854;PMS7003;60991;51.278;22.550;2023-03-23T08:18:25;16.50;12.50;10.00
72854;PMS7003;60991;51.278;22.550;2023-03-23T08:19:56;17.50;14.25;10.00
72854;PMS7003;60991;51.278;22.550;2023-03-23T08:21:26;23.50;20.00;12.75
72854;PMS7003;60991;51.278;22.550;2023-03-23T08:22:56;18.75;14.25;11.25
72854;PMS7003;60991;51.278;22.550;2023-03-23T08:24:26;15.75;14.75;10.50
72854;PMS7003;60991;51.278;22.550;2023-03-23T08:25:57;22.00;20.00;12.75
72854;PMS7003;60991;51.278;22.550;2023-03-23T08:27:27;19.00;16.00;11.25
72854;PMS7003;60991;51.278;22.550;2023-03-23T08:28:57;15.75;14.00;10.50
72854;PMS7003;60991;51.278;22.550;2023-03-23T08:30:28;13.50;12.00;10.00
72854;PMS7003;60991;51.278;22.550;2023-03-23T08:31:59;18.00;15.50;10.75
72854;PMS7003;60991;51.278;22.550;2023-03-23T08:33:29;15.00;14.75;11.00
72854;PMS7003;60991;51.278;22.550;2023-03-23T08:34:59;19.25;17.00;12.75
72854;PMS7003;60991;51.278;22.550;2023-03-23T08:36:30;17.75;17.25;12.25
72854;PMS7003;60991;51.278;22.550;2023-03-23T08:38:02;18.75;15.75;11.75
72854;PMS7003;60991;51.278;22.550;2023-03-23T08:39:32;13.50;12.25;10.50
72854;PMS7003;60991;51.278;22.550;2023-03-23T08:41:03;18.75;15.50;12.00
72854;PMS7003;60991;51.278;22.550;2023-03-23T08:42:38;16.50;13.00;8.50
72854;PMS7003;60991;51.278;22.550;2023-03-23T08:44:10;14.50;14.25;12.00
72854;PMS7003;60991;51.278;22.550;2023-03-23T08:45:40;19.00;15.00;10.75
72854;PMS7003;60991;51.278;22.550;2023-03-23T08:47:11;13.25;13.00;11.00
72854;PMS7003;60991;51.278;22.550;2023-03-23T08:48:41;12.50;11.25;10.25